sensor_id;sensor_type;location;lat;lon;timestamp;temperature;humidity
38183;DHT22;23991;52.430;10.586;2023-10-08T00:01:15;15.30;78.60
38183;DHT22;23991;52.430;10.586;2023-10-08T00:03:46;15.40;78.80
38183;DHT22;23991;52.430;10.586;2023-10-08T00:06:19;15.30;78.70
38183;DHT22;23991;52.430;10.586;2023-10-08T00:08:48;15.30;78.80
38183;DHT22;23991;52.430;10.586;2023-10-08T00:11:14;15.30;78.80
38183;DHT22;23991;52.430;10.586;2023-10-08T00:13:42;15.30;78.60
38183;DHT22;23991;52.430;10.586;2023-10-08T00:16:13;15.30;78.50
38183;DHT22;23991;52.430;10.586;2023-10-08T00:18:43;15.20;78.80
38183;DHT22;23991;52.430;10.586;2023-10-08T00:21:17;15.10;78.90
38183;DHT22;23991;52.430;10.586;2023-10-08T00:23:45;15.10;78.80
38183;DHT22;23991;52.430;10.586;2023-10-08T00:26:23;15.00;79.00
38183;DHT22;23991;52.430;10.586;2023-10-08T00:28:56;15.00;79.10
38183;DHT22;23991;52.430;10.586;2023-10-08T00:31:23;15.00;79.50
38183;DHT22;23991;52.430;10.586;2023-10-08T00:34:07;15.10;79.50
38183;DHT22;23991;52.430;10.586;2023-10-08T00:36:37;15.10;79.30
38183;DHT22;23991;52.430;10.586;2023-10-08T00:39:04;15.00;79.40
38183;DHT22;23991;52.430;10.586;2023-10-08T00:41:36;15.00;79.20
38183;DHT22;23991;52.430;10.586;2023-10-08T00:44:06;14.90;79.30
38183;DHT22;23991;52.430;10.586;2023-10-08T00:46:33;14.90;79.10
38183;DHT22;23991;52.430;10.586;2023-10-08T00:49:08;14.80;78.60
38183;DHT22;23991;52.430;10.586;2023-10-08T00:51:57;14.60;78.70
38183;DHT22;23991;52.430;10.586;2023-10-08T00:54:39;14.50;77.90
38183;DHT22;23991;52.430;10.586;2023-10-08T00:57:21;14.40;76.70
38183;DHT22;23991;52.430;10.586;2023-10-08T00:59:48;14.30;75.40
38183;DHT22;23991;52.430;10.586;2023-10-08T01:02:26;14.30;75.60
38183;DHT22;23991;52.430;10.586;2023-10-08T01:04:54;14.20;75.20
38183;DHT22;23991;52.430;10.586;2023-10-08T01:07:21;14.20;74.70
38183;DHT22;23991;52.430;10.586;2023-10-08T01:09:49;14.20;74.90
38183;DHT22;23991;52.430;10.586;2023-10-08T01:12:18;14.20;74.30
38183;DHT22;23991;52.430;10.586;2023-10-08T01:14:48;14.10;74.10
38183;DHT22;23991;52.430;10.586;2023-10-08T01:17:16;14.20;74.30
38183;DHT22;23991;52.430;10.586;2023-10-08T01:19:48;14.10;74.50
38183;DHT22;23991;52.430;10.586;2023-10-08T01:22:22;14.10;74.80
38183;DHT22;23991;52.430;10.586;2023-10-08T01:24:48;14.10;74.70
38183;DHT22;23991;52.430;10.586;2023-10-08T01:27:20;14.10;74.50
38183;DHT22;23991;52.430;10.586;2023-10-08T01:29:48;14.10;74.70
38183;DHT22;23991;52.430;10.586;2023-10-08T01:32:16;14.10;75.00
38183;DHT22;23991;52.430;10.586;2023-10-08T01:34:43;14.00;74.70
38183;DHT22;23991;52.430;10.586;2023-10-08T01:37:19;14.00;74.80
38183;DHT22;23991;52.430;10.586;2023-10-08T01:39:47;14.00;74.90
38183;DHT22;23991;52.430;10.586;2023-10-08T01:42:15;14.00;75.10
38183;DHT22;23991;52.430;10.586;2023-10-08T01:44:48;13.90;75.10
38183;DHT22;23991;52.430;10.586;2023-10-08T01:47:16;13.90;75.20
38183;DHT22;23991;52.430;10.586;2023-10-08T01:49:43;14.00;75.30
38183;DHT22;23991;52.430;10.586;2023-10-08T01:52:10;13.90;75.60
38183;DHT22;23991;52.430;10.586;2023-10-08T01:54:48;13.90;75.90
38183;DHT22;23991;52.430;10.586;2023-10-08T01:57:15;13.90;76.00
38183;DHT22;23991;52.430;10.586;2023-10-08T01:59:42;13.80;76.50
38183;DHT22;23991;52.430;10.586;2023-10-08T02:02:09;13.90;76.70
38183;DHT22;23991;52.430;10.586;2023-10-08T02:04:36;13.80;76.90
38183;DHT22;23991;52.430;10.586;2023-10-08T02:07:03;13.80;77.10
38183;DHT22;23991;52.430;10.586;2023-10-08T02:09:30;13.80;77.10
38183;DHT22;23991;52.430;10.586;2023-10-08T02:11:56;13.80;77.20
38183;DHT22;23991;52.430;10.586;2023-10-08T02:14:22;13.80;77.20
38183;DHT22;23991;52.430;10.586;2023-10-08T02:16:49;13.80;77.20
38183;DHT22;23991;52.430;10.586;2023-10-08T02:19:18;13.80;77.30
38183;DHT22;23991;52.430;10.586;2023-10-08T02:21:56;13.80;77.60
38183;DHT22;23991;52.430;10.586;2023-10-08T02:24:23;13.80;77.90
38183;DHT22;23991;52.430;10.586;2023-10-08T02:26:53;13.80;78.00
38183;DHT22;23991;52.430;10.586;2023-10-08T02:29:20;13.80;78.10
38183;DHT22;23991;52.430;10.586;2023-10-08T02:31:47;13.70;78.10
38183;DHT22;23991;52.430;10.586;2023-10-08T02:34:13;13.70;78.30
38183;DHT22;23991;52.430;10.586;2023-10-08T02:36:40;13.70;78.40
38183;DHT22;23991;52.430;10.586;2023-10-08T02:39:06;13.70;78.40
38183;DHT22;23991;52.430;10.586;2023-10-08T02:41:51;13.70;78.50
38183;DHT22;23991;52.430;10.586;2023-10-08T02:44:18;13.60;78.50
38183;DHT22;23991;52.430;10.586;2023-10-08T02:46:47;13.60;78.60
38183;DHT22;23991;52.430;10.586;2023-10-08T02:49:14;13.60;78.50
38183;DHT22;23991;52.430;10.586;2023-10-08T02:51:46;13.60;78.50
38183;DHT22;23991;52.430;10.586;2023-10-08T02:54:13;13.60;78.50
38183;DHT22;23991;52.430;10.586;2023-10-08T02:56:49;13.60;78.60
38183;DHT22;23991;52.430;10.586;2023-10-08T02:59:23;13.70;78.80
38183;DHT22;23991;52.430;10.586;2023-10-08T03:01:49;13.60;78.90
38183;DHT22;23991;52.430;10.586;2023-10-08T03:04:15;13.50;79.00
38183;DHT22;23991;52.430;10.586;2023-10-08T03:06:48;13.50;78.90
38183;DHT22;23991;52.430;10.586;2023-10-08T03:09:21;13.60;79.00
38183;DHT22;23991;52.430;10.586;2023-10-08T03:11:49;13.60;78.90
38183;DHT22;23991;52.430;10.586;2023-10-08T03:14:17;13.60;79.00
38183;DHT22;23991;52.430;10.586;2023-10-08T03:16:53;13.60;79.10
38183;DHT22;23991;52.430;10.586;2023-10-08T03:19:21;13.60;79.20
38183;DHT22;23991;52.430;10.586;2023-10-08T03:21:48;13.60;79.40
38183;DHT22;23991;52.430;10.586;2023-10-08T03:24:19;13.50;79.30
38183;DHT22;23991;52.430;10.586;2023-10-08T03:26:58;13.50;79.30
38183;DHT22;23991;52.430;10.586;2023-10-08T03:29:53;13.50;79.50
38183;DHT22;23991;52.430;10.586;2023-10-08T03:32:20;13.50;79.40
38183;DHT22;23991;52.430;10.586;2023-10-08T03:34:52;13.50;79.60
38183;DHT22;23991;52.430;10.586;2023-10-08T03:37:22;13.50;79.70
38183;DHT22;23991;52.430;10.586;2023-10-08T03:39:55;13.50;79.70
38183;DHT22;23991;52.430;10.586;2023-10-08T03:42:51;13.50;79.80
38183;DHT22;23991;52.430;10.586;2023-10-08T03:45:17;13.50;79.70
38183;DHT22;23991;52.430;10.586;2023-10-08T03:48:02;13.50;79.90
38183;DHT22;23991;52.430;10.586;2023-10-08T03:50:37;13.50;80.00
38183;DHT22;23991;52.430;10.586;2023-10-08T03:53:07;13.40;80.10
38183;DHT22;23991;52.430;10.586;2023-10-08T03:55:39;13.50;80.20
38183;DHT22;23991;52.430;10.586;2023-10-08T03:58:07;13.50;80.20
38183;DHT22;23991;52.430;10.586;2023-10-08T04:00:37;13.40;80.30
38183;DHT22;23991;52.430;10.586;2023-10-08T04:03:08;13.40;80.40
38183;DHT22;23991;52.430;10.586;2023-10-08T04:05:38;13.40;80.40
38183;DHT22;23991;52.430;10.586;2023-10-08T04:08:35;13.40;80.50
38183;DHT22;23991;52.430;10.586;2023-10-08T04:11:20;13.40;80.60
38183;DHT22;23991;52.430;10.586;2023-10-08T04:14:07;13.40;80.50
38183;DHT22;23991;52.430;10.586;2023-10-08T04:16:33;13.40;80.50
38183;DHT22;23991;52.430;10.586;2023-10-08T04:19:05;13.40;80.60
38183;DHT22;23991;52.430;10.586;2023-10-08T04:21:32;13.30;80.60
38183;DHT22;23991;52.430;10.586;2023-10-08T04:24:00;13.30;81.00
38183;DHT22;23991;52.430;10.586;2023-10-08T04:26:32;13.30;80.80
38183;DHT22;23991;52.430;10.586;2023-10-08T04:28:59;13.40;80.80
38183;DHT22;23991;52.430;10.586;2023-10-08T04:31:33;13.30;80.80
38183;DHT22;23991;52.430;10.586;2023-10-08T04:34:09;13.30;80.90
38183;DHT22;23991;52.430;10.586;2023-10-08T04:36:44;13.30;81.00
38183;DHT22;23991;52.430;10.586;2023-10-08T04:39:11;13.30;81.00
38183;DHT22;23991;52.430;10.586;2023-10-08T04:41:48;13.30;81.00
38183;DHT22;23991;52.430;10.586;2023-10-08T04:44:18;13.30;81.00
38183;DHT22;23991;52.430;10.586;2023-10-08T04:46:45;13.30;81.10
38183;DHT22;23991;52.430;10.586;2023-10-08T04:49:11;13.30;81.10
38183;DHT22;23991;52.430;10.586;2023-10-08T04:52:03;13.30;81.10
38183;DHT22;23991;52.430;10.586;2023-10-08T04:54:44;13.30;81.00
38183;DHT22;23991;52.430;10.586;2023-10-08T04:57:20;13.30;81.10
38183;DHT22;23991;52.430;10.586;2023-10-08T04:59:51;13.30;81.00
38183;DHT22;23991;52.430;10.586;2023-10-08T05:02:17;13.20;80.90
38183;DHT22;23991;52.430;10.586;2023-10-08T05:04:52;13.30;80.90
38183;DHT22;23991;52.430;10.586;2023-10-08T05:07:18;13.20;80.80
38183;DHT22;23991;52.430;10.586;2023-10-08T05:09:53;13.20;80.90
38183;DHT22;23991;52.430;10.586;2023-10-08T05:12:38;13.20;81.10
38183;DHT22;23991;52.430;10.586;2023-10-08T05:15:12;13.20;81.10
38183;DHT22;23991;52.430;10.586;2023-10-08T05:20:30;13.20;81.30
38183;DHT22;23991;52.430;10.586;2023-10-08T05:23:14;13.20;81.40
38183;DHT22;23991;52.430;10.586;2023-10-08T05:26:06;13.10;81.50
38183;DHT22;23991;52.430;10.586;2023-10-08T05:28:32;13.10;81.60
38183;DHT22;23991;52.430;10.586;2023-10-08T05:31:08;13.20;81.70
38183;DHT22;23991;52.430;10.586;2023-10-08T05:33:43;13.20;81.70
38183;DHT22;23991;52.430;10.586;2023-10-08T05:36:35;13.10;81.70
38183;DHT22;23991;52.430;10.586;2023-10-08T05:39:21;13.10;81.70
38183;DHT22;23991;52.430;10.586;2023-10-08T05:41:49;13.20;81.80
38183;DHT22;23991;52.430;10.586;2023-10-08T05:44:30;13.20;81.80
38183;DHT22;23991;52.430;10.586;2023-10-08T05:47:08;13.10;81.80
38183;DHT22;23991;52.430;10.586;2023-10-08T05:50:09;13.20;81.90
38183;DHT22;23991;52.430;10.586;2023-10-08T05:52:37;13.10;81.90
38183;DHT22;23991;52.430;10.586;2023-10-08T05:55:17;13.20;81.90
38183;DHT22;23991;52.430;10.586;2023-10-08T05:57:53;13.20;82.00
38183;DHT22;23991;52.430;10.586;2023-10-08T06:00:41;13.10;82.00
38183;DHT22;23991;52.430;10.586;2023-10-08T06:03:17;13.20;82.00
38183;DHT22;23991;52.430;10.586;2023-10-08T06:06:06;13.20;82.10
38183;DHT22;23991;52.430;10.586;2023-10-08T06:08:35;13.30;82.00
38183;DHT22;23991;52.430;10.586;2023-10-08T06:11:19;13.30;81.80
38183;DHT22;23991;52.430;10.586;2023-10-08T06:14:04;13.30;81.60
38183;DHT22;23991;52.430;10.586;2023-10-08T06:16:40;13.40;81.50
38183;DHT22;23991;52.430;10.586;2023-10-08T06:19:15;13.40;81.10
38183;DHT22;23991;52.430;10.586;2023-10-08T06:21:42;13.50;81.00
38183;DHT22;23991;52.430;10.586;2023-10-08T06:24:09;13.60;81.00
38183;DHT22;23991;52.430;10.586;2023-10-08T06:26:39;13.60;80.70
38183;DHT22;23991;52.430;10.586;2023-10-08T06:29:11;13.60;80.60
38183;DHT22;23991;52.430;10.586;2023-10-08T06:31:57;13.70;80.50
38183;DHT22;23991;52.430;10.586;2023-10-08T06:34:30;13.70;80.30
38183;DHT22;23991;52.430;10.586;2023-10-08T06:36:59;13.80;80.10
38183;DHT22;23991;52.430;10.586;2023-10-08T06:39:25;13.90;79.90
38183;DHT22;23991;52.430;10.586;2023-10-08T06:42:10;14.00;79.80
38183;DHT22;23991;52.430;10.586;2023-10-08T06:44:35;14.10;79.60
38183;DHT22;23991;52.430;10.586;2023-10-08T06:47:02;14.10;79.40
38183;DHT22;23991;52.430;10.586;2023-10-08T06:49:35;14.30;79.20
38183;DHT22;23991;52.430;10.586;2023-10-08T06:52:01;14.40;78.80
38183;DHT22;23991;52.430;10.586;2023-10-08T06:54:27;14.50;78.50
38183;DHT22;23991;52.430;10.586;2023-10-08T06:56:56;14.60;78.10
38183;DHT22;23991;52.430;10.586;2023-10-08T06:59:22;14.70;77.70
38183;DHT22;23991;52.430;10.586;2023-10-08T07:01:48;14.70;77.40
38183;DHT22;23991;52.430;10.586;2023-10-08T07:04:17;14.80;77.10
38183;DHT22;23991;52.430;10.586;2023-10-08T07:06:44;14.80;77.00
38183;DHT22;23991;52.430;10.586;2023-10-08T07:09:12;15.00;76.70
38183;DHT22;23991;52.430;10.586;2023-10-08T07:11:53;15.20;76.10
38183;DHT22;23991;52.430;10.586;2023-10-08T07:14:27;15.30;75.20
38183;DHT22;23991;52.430;10.586;2023-10-08T07:16:57;15.50;74.60
38183;DHT22;23991;52.430;10.586;2023-10-08T07:19:30;15.70;73.80
38183;DHT22;23991;52.430;10.586;2023-10-08T07:22:03;15.80;73.00
38183;DHT22;23991;52.430;10.586;2023-10-08T07:24:34;15.90;72.90
38183;DHT22;23991;52.430;10.586;2023-10-08T07:27:02;16.20;72.20
38183;DHT22;23991;52.430;10.586;2023-10-08T07:29:34;16.50;70.80
38183;DHT22;23991;52.430;10.586;2023-10-08T07:32:00;16.80;70.30
38183;DHT22;23991;52.430;10.586;2023-10-08T07:34:36;17.30;69.20
38183;DHT22;23991;52.430;10.586;2023-10-08T07:37:03;17.80;67.70
38183;DHT22;23991;52.430;10.586;2023-10-08T07:39:31;18.00;66.30
38183;DHT22;23991;52.430;10.586;2023-10-08T07:42:03;18.30;64.70
38183;DHT22;23991;52.430;10.586;2023-10-08T07:44:31;18.50;64.20
38183;DHT22;23991;52.430;10.586;2023-10-08T07:46:57;18.80;63.40
38183;DHT22;23991;52.430;10.586;2023-10-08T07:49:26;19.10;62.50
38183;DHT22;23991;52.430;10.586;2023-10-08T07:51:56;19.20;60.90
38183;DHT22;23991;52.430;10.586;2023-10-08T07:54:25;19.20;60.90
38183;DHT22;23991;52.430;10.586;2023-10-08T07:56:53;19.30;60.90
38183;DHT22;23991;52.430;10.586;2023-10-08T07:59:41;19.40;60.40
38183;DHT22;23991;52.430;10.586;2023-10-08T08:02:08;19.30;60.60
38183;DHT22;23991;52.430;10.586;2023-10-08T08:04:38;19.00;60.00
38183;DHT22;23991;52.430;10.586;2023-10-08T08:07:06;19.00;60.30
38183;DHT22;23991;52.430;10.586;2023-10-08T08:09:32;19.00;60.60
38183;DHT22;23991;52.430;10.586;2023-10-08T08:12:05;19.10;60.20
38183;DHT22;23991;52.430;10.586;2023-10-08T08:14:33;18.90;60.70
38183;DHT22;23991;52.430;10.586;2023-10-08T08:16:59;19.00;60.70
38183;DHT22;23991;52.430;10.586;2023-10-08T08:19:45;19.20;59.60
38183;DHT22;23991;52.430;10.586;2023-10-08T08:22:13;19.30;59.80
38183;DHT22;23991;52.430;10.586;2023-10-08T08:24:44;19.40;58.20
38183;DHT22;23991;52.430;10.586;2023-10-08T08:27:11;19.30;58.90
38183;DHT22;23991;52.430;10.586;2023-10-08T08:29:52;19.40;57.90
38183;DHT22;23991;52.430;10.586;2023-10-08T08:32:22;19.30;57.60
38183;DHT22;23991;52.430;10.586;2023-10-08T08:34:48;19.30;57.10
38183;DHT22;23991;52.430;10.586;2023-10-08T08:37:16;19.20;57.20
38183;DHT22;23991;52.430;10.586;2023-10-08T08:39:42;19.30;57.20
38183;DHT22;23991;52.430;10.586;2023-10-08T08:42:08;19.40;57.20
38183;DHT22;23991;52.430;10.586;2023-10-08T08:44:38;19.40;56.40
38183;DHT22;23991;52.430;10.586;2023-10-08T08:47:14;19.30;55.30
38183;DHT22;23991;52.430;10.586;2023-10-08T08:49:44;19.50;55.60
38183;DHT22;23991;52.430;10.586;2023-10-08T08:52:14;19.60;55.40
38183;DHT22;23991;52.430;10.586;2023-10-08T08:54:40;19.70;55.10
38183;DHT22;23991;52.430;10.586;2023-10-08T08:57:08;19.80;54.30
38183;DHT22;23991;52.430;10.586;2023-10-08T08:59:45;19.80;55.40
38183;DHT22;23991;52.430;10.586;2023-10-08T09:02:13;20.20;54.00
38183;DHT22;23991;52.430;10.586;2023-10-08T09:04:40;20.40;52.80
38183;DHT22;23991;52.430;10.586;2023-10-08T09:07:07;20.70;52.20
38183;DHT22;23991;52.430;10.586;2023-10-08T09:09:34;20.80;52.30
38183;DHT22;23991;52.430;10.586;2023-10-08T09:12:05;20.80;52.60
38183;DHT22;23991;52.430;10.586;2023-10-08T09:14:31;20.80;51.90
38183;DHT22;23991;52.430;10.586;2023-10-08T09:16:58;20.80;50.50
38183;DHT22;23991;52.430;10.586;2023-10-08T09:19:25;21.10;49.70
38183;DHT22;23991;52.430;10.586;2023-10-08T09:22:10;21.20;49.40
38183;DHT22;23991;52.430;10.586;2023-10-08T09:24:38;21.30;48.70
38183;DHT22;23991;52.430;10.586;2023-10-08T09:27:11;21.50;49.00
38183;DHT22;23991;52.430;10.586;2023-10-08T09:29:47;21.60;48.00
38183;DHT22;23991;52.430;10.586;2023-10-08T09:32:13;21.80;48.40
38183;DHT22;23991;52.430;10.586;2023-10-08T09:34:39;22.20;46.70
38183;DHT22;23991;52.430;10.586;2023-10-08T09:37:05;22.80;45.50
38183;DHT22;23991;52.430;10.586;2023-10-08T09:39:33;23.80;43.50
38183;DHT22;23991;52.430;10.586;2023-10-08T09:42:01;24.30;41.60
38183;DHT22;23991;52.430;10.586;2023-10-08T09:44:37;24.70;40.90
38183;DHT22;23991;52.430;10.586;2023-10-08T09:47:04;24.40;41.50
38183;DHT22;23991;52.430;10.586;2023-10-08T09:49:39;24.20;41.80
38183;DHT22;23991;52.430;10.586;2023-10-08T09:52:08;24.20;41.80
38183;DHT22;23991;52.430;10.586;2023-10-08T09:54:58;24.80;41.30
38183;DHT22;23991;52.430;10.586;2023-10-08T09:57:24;25.00;39.20
38183;DHT22;23991;52.430;10.586;2023-10-08T09:59:52;24.80;39.40
38183;DHT22;23991;52.430;10.586;2023-10-08T10:02:19;24.50;39.40
38183;DHT22;23991;52.430;10.586;2023-10-08T10:04:50;24.90;39.90
38183;DHT22;23991;52.430;10.586;2023-10-08T10:07:19;24.90;39.60
38183;DHT22;23991;52.430;10.586;2023-10-08T10:09:49;25.60;39.10
38183;DHT22;23991;52.430;10.586;2023-10-08T10:12:25;26.10;37.60
38183;DHT22;23991;52.430;10.586;2023-10-08T10:14:54;26.50;36.30
38183;DHT22;23991;52.430;10.586;2023-10-08T10:17:25;26.30;36.10
38183;DHT22;23991;52.430;10.586;2023-10-08T10:20:01;25.80;36.70
38183;DHT22;23991;52.430;10.586;2023-10-08T10:22:34;25.20;38.20
38183;DHT22;23991;52.430;10.586;2023-10-08T10:25:02;24.80;39.00
38183;DHT22;23991;52.430;10.586;2023-10-08T10:30:30;24.20;40.10
38183;DHT22;23991;52.430;10.586;2023-10-08T10:32:59;24.70;38.10
38183;DHT22;23991;52.430;10.586;2023-10-08T10:35:25;25.30;37.70
38183;DHT22;23991;52.430;10.586;2023-10-08T10:37:53;26.10;36.30
38183;DHT22;23991;52.430;10.586;2023-10-08T10:40:21;26.70;34.30
38183;DHT22;23991;52.430;10.586;2023-10-08T10:43:08;27.20;33.10
38183;DHT22;23991;52.430;10.586;2023-10-08T10:45:41;27.10;33.10
38183;DHT22;23991;52.430;10.586;2023-10-08T10:48:12;26.80;34.30
38183;DHT22;23991;52.430;10.586;2023-10-08T10:50:46;26.60;34.70
38183;DHT22;23991;52.430;10.586;2023-10-08T10:53:34;25.80;35.90
38183;DHT22;23991;52.430;10.586;2023-10-08T10:56:12;25.60;36.30
38183;DHT22;23991;52.430;10.586;2023-10-08T10:58:45;25.70;35.40
38183;DHT22;23991;52.430;10.586;2023-10-08T11:01:11;26.20;31.60
38183;DHT22;23991;52.430;10.586;2023-10-08T11:03:52;26.40;30.60
38183;DHT22;23991;52.430;10.586;2023-10-08T11:06:22;26.70;31.10
38183;DHT22;23991;52.430;10.586;2023-10-08T11:08:52;26.80;29.80
38183;DHT22;23991;52.430;10.586;2023-10-08T11:11:28;26.90;30.10
38183;DHT22;23991;52.430;10.586;2023-10-08T11:13:58;27.50;29.40
38183;DHT22;23991;52.430;10.586;2023-10-08T11:16:26;27.50;28.50
38183;DHT22;23991;52.430;10.586;2023-10-08T11:18:53;28.30;28.80
38183;DHT22;23991;52.430;10.586;2023-10-08T11:21:23;28.90;27.80
38183;DHT22;23991;52.430;10.586;2023-10-08T11:23:51;29.20;27.20
38183;DHT22;23991;52.430;10.586;2023-10-08T11:26:23;29.30;26.10
38183;DHT22;23991;52.430;10.586;2023-10-08T11:28:59;29.30;27.30
38183;DHT22;23991;52.430;10.586;2023-10-08T11:31:29;29.40;27.20
38183;DHT22;23991;52.430;10.586;2023-10-08T11:34:02;29.70;25.90
38183;DHT22;23991;52.430;10.586;2023-10-08T11:36:35;29.40;27.10
38183;DHT22;23991;52.430;10.586;2023-10-08T11:39:14;29.70;26.50
38183;DHT22;23991;52.430;10.586;2023-10-08T11:42:00;29.50;26.00
38183;DHT22;23991;52.430;10.586;2023-10-08T11:44:32;29.70;25.60
38183;DHT22;23991;52.430;10.586;2023-10-08T11:47:02;30.40;24.60
38183;DHT22;23991;52.430;10.586;2023-10-08T11:49:38;30.20;24.40
38183;DHT22;23991;52.430;10.586;2023-10-08T11:52:12;29.90;25.20
38183;DHT22;23991;52.430;10.586;2023-10-08T11:54:41;30.10;25.70
38183;DHT22;23991;52.430;10.586;2023-10-08T11:57:07;30.50;25.00
38183;DHT22;23991;52.430;10.586;2023-10-08T11:59:34;30.70;25.40
38183;DHT22;23991;52.430;10.586;2023-10-08T12:02:08;31.30;24.20
38183;DHT22;23991;52.430;10.586;2023-10-08T12:04:34;31.60;24.30
38183;DHT22;23991;52.430;10.586;2023-10-08T12:07:01;31.70;23.60
38183;DHT22;23991;52.430;10.586;2023-10-08T12:09:32;31.50;24.50
38183;DHT22;23991;52.430;10.586;2023-10-08T12:12:04;31.70;23.90
38183;DHT22;23991;52.430;10.586;2023-10-08T12:14:35;31.40;24.00
38183;DHT22;23991;52.430;10.586;2023-10-08T12:17:01;30.80;24.10
38183;DHT22;23991;52.430;10.586;2023-10-08T12:19:39;30.30;23.60
38183;DHT22;23991;52.430;10.586;2023-10-08T12:22:06;29.80;24.20
38183;DHT22;23991;52.430;10.586;2023-10-08T12:24:33;29.20;24.40
38183;DHT22;23991;52.430;10.586;2023-10-08T12:26:59;29.00;25.50
38183;DHT22;23991;52.430;10.586;2023-10-08T12:29:24;29.50;25.20
38183;DHT22;23991;52.430;10.586;2023-10-08T12:31:51;29.30;26.50
38183;DHT22;23991;52.430;10.586;2023-10-08T12:34:18;29.20;27.40
38183;DHT22;23991;52.430;10.586;2023-10-08T12:36:44;29.10;27.00
38183;DHT22;23991;52.430;10.586;2023-10-08T12:39:11;29.40;26.50
38183;DHT22;23991;52.430;10.586;2023-10-08T12:41:44;29.20;27.00
38183;DHT22;23991;52.430;10.586;2023-10-08T12:44:11;29.70;26.40
38183;DHT22;23991;52.430;10.586;2023-10-08T12:46:37;29.40;26.40
38183;DHT22;23991;52.430;10.586;2023-10-08T12:49:03;29.20;26.40
38183;DHT22;23991;52.430;10.586;2023-10-08T12:51:30;29.20;26.40
38183;DHT22;23991;52.430;10.586;2023-10-08T12:53:58;30.00;26.10
38183;DHT22;23991;52.430;10.586;2023-10-08T12:56:29;30.30;24.70
38183;DHT22;23991;52.430;10.586;2023-10-08T12:59:01;30.00;25.40
38183;DHT22;23991;52.430;10.586;2023-10-08T13:01:31;30.20;24.70
38183;DHT22;23991;52.430;10.586;2023-10-08T13:04:00;30.30;25.30
38183;DHT22;23991;52.430;10.586;2023-10-08T13:06:27;29.90;26.00
38183;DHT22;23991;52.430;10.586;2023-10-08T13:08:56;30.10;25.50
38183;DHT22;23991;52.430;10.586;2023-10-08T13:11:23;30.60;24.90
38183;DHT22;23991;52.430;10.586;2023-10-08T13:13:54;30.10;26.20
38183;DHT22;23991;52.430;10.586;2023-10-08T13:16:24;30.20;26.00
38183;DHT22;23991;52.430;10.586;2023-10-08T13:18:50;30.20;26.30
38183;DHT22;23991;52.430;10.586;2023-10-08T13:21:18;29.90;26.10
38183;DHT22;23991;52.430;10.586;2023-10-08T13:23:53;30.30;25.90
38183;DHT22;23991;52.430;10.586;2023-10-08T13:26:19;30.20;25.60
38183;DHT22;23991;52.430;10.586;2023-10-08T13:28:48;30.00;26.10
38183;DHT22;23991;52.430;10.586;2023-10-08T13:31:14;29.80;26.70
38183;DHT22;23991;52.430;10.586;2023-10-08T13:33:42;29.70;26.60
38183;DHT22;23991;52.430;10.586;2023-10-08T13:36:15;29.80;26.20
38183;DHT22;23991;52.430;10.586;2023-10-08T13:38:41;30.00;25.30
38183;DHT22;23991;52.430;10.586;2023-10-08T13:41:09;29.90;26.70
38183;DHT22;23991;52.430;10.586;2023-10-08T13:43:43;29.70;26.30
38183;DHT22;23991;52.430;10.586;2023-10-08T13:46:16;29.20;26.70
38183;DHT22;23991;52.430;10.586;2023-10-08T13:48:46;28.80;27.80
38183;DHT22;23991;52.430;10.586;2023-10-08T13:51:20;28.70;28.10
38183;DHT22;23991;52.430;10.586;2023-10-08T13:53:50;28.40;28.80
38183;DHT22;23991;52.430;10.586;2023-10-08T13:56:21;28.20;28.80
38183;DHT22;23991;52.430;10.586;2023-10-08T13:58:50;28.10;28.50
38183;DHT22;23991;52.430;10.586;2023-10-08T14:01:17;28.20;29.00
38183;DHT22;23991;52.430;10.586;2023-10-08T14:03:49;27.90;28.90
38183;DHT22;23991;52.430;10.586;2023-10-08T14:06:19;27.70;29.50
38183;DHT22;23991;52.430;10.586;2023-10-08T14:08:46;27.80;29.10
38183;DHT22;23991;52.430;10.586;2023-10-08T14:11:18;27.70;29.10
38183;DHT22;23991;52.430;10.586;2023-10-08T14:13:44;27.30;29.30
38183;DHT22;23991;52.430;10.586;2023-10-08T14:16:13;27.20;29.60
38183;DHT22;23991;52.430;10.586;2023-10-08T14:18:41;27.10;30.30
38183;DHT22;23991;52.430;10.586;2023-10-08T14:21:08;26.70;31.10
38183;DHT22;23991;52.430;10.586;2023-10-08T14:23:36;26.70;31.70
38183;DHT22;23991;52.430;10.586;2023-10-08T14:26:06;26.50;31.10
38183;DHT22;23991;52.430;10.586;2023-10-08T14:28:34;25.90;31.30
38183;DHT22;23991;52.430;10.586;2023-10-08T14:31:10;25.70;31.90
38183;DHT22;23991;52.430;10.586;2023-10-08T14:33:43;25.70;32.50
38183;DHT22;23991;52.430;10.586;2023-10-08T14:36:25;25.50;32.50
38183;DHT22;23991;52.430;10.586;2023-10-08T14:39:10;25.20;33.00
38183;DHT22;23991;52.430;10.586;2023-10-08T14:41:54;25.00;33.10
38183;DHT22;23991;52.430;10.586;2023-10-08T14:44:40;24.80;33.90
38183;DHT22;23991;52.430;10.586;2023-10-08T14:47:06;24.70;35.00
38183;DHT22;23991;52.430;10.586;2023-10-08T14:49:33;24.50;33.60
38183;DHT22;23991;52.430;10.586;2023-10-08T14:52:02;24.80;33.10
38183;DHT22;23991;52.430;10.586;2023-10-08T14:54:37;24.70;33.80
38183;DHT22;23991;52.430;10.586;2023-10-08T14:57:07;24.50;33.80
38183;DHT22;23991;52.430;10.586;2023-10-08T14:59:33;24.60;33.60
38183;DHT22;23991;52.430;10.586;2023-10-08T15:01:58;24.50;33.80
38183;DHT22;23991;52.430;10.586;2023-10-08T15:04:25;24.30;34.00
38183;DHT22;23991;52.430;10.586;2023-10-08T15:06:55;24.10;34.50
38183;DHT22;23991;52.430;10.586;2023-10-08T15:09:22;23.90;34.90
38183;DHT22;23991;52.430;10.586;2023-10-08T15:11:52;23.90;36.10
38183;DHT22;23991;52.430;10.586;2023-10-08T15:14:21;23.70;35.80
38183;DHT22;23991;52.430;10.586;2023-10-08T15:16:50;23.40;35.20
38183;DHT22;23991;52.430;10.586;2023-10-08T15:19:23;23.50;35.80
38183;DHT22;23991;52.430;10.586;2023-10-08T15:21:49;23.40;35.70
38183;DHT22;23991;52.430;10.586;2023-10-08T15:24:20;23.20;36.50
38183;DHT22;23991;52.430;10.586;2023-10-08T15:26:52;23.00;36.50
38183;DHT22;23991;52.430;10.586;2023-10-08T15:29:19;22.80;37.00
38183;DHT22;23991;52.430;10.586;2023-10-08T15:31:46;22.70;37.70
38183;DHT22;23991;52.430;10.586;2023-10-08T15:34:12;22.70;38.70
38183;DHT22;23991;52.430;10.586;2023-10-08T15:36:39;22.60;37.90
38183;DHT22;23991;52.430;10.586;2023-10-08T15:39:06;22.60;38.30
38183;DHT22;23991;52.430;10.586;2023-10-08T15:41:36;22.50;38.30
38183;DHT22;23991;52.430;10.586;2023-10-08T15:44:02;22.20;39.20
38183;DHT22;23991;52.430;10.586;2023-10-08T15:46:28;22.20;39.40